首页
METAR-TAF:

METAR-TAF

机场 :

Moosonee, 安大略省, 加拿大

纬度: 51-16N, 经度: 080-39W, 海拔: 10米

当前天气观测

该预报发布于37分钟前的05:00 UTC
风速8节,风向西南
温度 -28°C
湿度 75%
气压 1017 hPa
能見度: 14.5公里
天空无云

METAR: CYMO 110500Z AUTO 22008KT 9SM CLR M28/M31 A3003 RMK SLP171

时间: 00:37 (05:37 UTC)

预报

该预报发布于5小时和54分钟前的23:43 UTC
预报有效从11日的 00点(UTC)到 11日的 12点(UTC)
风速9节,风向西转西南
能見度: 10公里
天空无云
成为
从 11日的 05点(UTC)到 11日的 07点(UTC)
风速7节,风向西南

TAF: CYMO 102343Z 1100/1112 25009KT P6SM SKC BECMG 1105/1107 23007KT RMK FCST BASED ON AUTO OBS. NXT FCST BY 110600Z

超过4000个机场的气象观测和天气预报(METAR&TAF报告)。

可查询的气象台以黄色和红色小点在地图上表示。

将鼠标移到小点上方,可查看气象台名称。

然后点击查看天气观测和预报。

如需切换地图:点击带黑十字的绿色按钮放大地图;点击带横线的绿色按钮缩小地图;或者点击绿色箭头查看邻近地区的地图。


METAR-TAF: